Bei uns kannst du mitfliegen! Besuche uns und lerne uns kennen - als Gast, Pilot oder jemand der es werden möchte.

Kölner Klub für Luftsport e.V.

KKFL.de

Ausbildung – Fliegen – Abenteuer

Ausbildung im KKFL

Ausbildung

Fliegen lernen im Verein
Der KKFL.de bietet eine effiziente, schnelle Ausbildung zur Pivatpilotenlizenz (PPL) in verschiedenen Ausprägungen an. Nach der Ausbildung können diverse Ergänzungen vom Verstellpropeller bis hin zu Nachtflug oder das Fliegen nach Instrumentenflugregeln (IFR) angeschlossen werden.
Fliegen im Verein ist günstig!

Unsere Flotte

Cessna 172 S

D-EOCD
Die Cessna ist als schnelle Schul- und Reisemaschine gleichsam beliebt. Unsere vereins-eigene Flotte sorgt für Abwechlung bei den Piloten und unsere Werft senkt Kosten. In der Ausbildung dürfen Schüler über 'ihre Maschine' mit entscheiden.

Cessna 172 R

D-EFPB

2 x Piper PA 28 II

D-EFPA / D-ELFF

Aquila A210

D-EAQJ

Diamond DA 40

D-EKKL

Flugplatz Hangelar


[Quelle: ADDS]
METAR
EDDK 251620Z 20009KT 170V230 CAVOK 20/06 Q1006 NOSIG =
EDDK 251100Z 2512/2618 15013KT 9999 FEW035 TEMPO 2512/2514 15015G25KT BECMG 2514/2516 16008KT BECMG 2516/2518 23006KT TEMPO 2518/2524 29006KT PROB40 TEMPO 2518/2522 27015G25KT SHRA BKN020TCU PROB30 TEMPO 2522/2601 4000 -RA BKN012
TAF
EDDK 251100Z 2512/2618 15013KT 9999 FEW035 TEMPO 2512/2514 15015G25KT BECMG 2514/2516 16008KT BECMG 2516/2518 23006KT TEMPO 2518/2524 29006KT PROB40 TEMPO 2518/2522 27015G25KT SHRA BKN020TCU PROB30 TEMPO 2522/2601 4000 -RA BKN012 =
SR / SS: 04:16 / 18:41 UTC (EDKB 2019-04-25)

Du willst fliegen?

Während unserer Bürozeiten und auch dazwischen sind wir für deine Fragen da.
Bitte kontaktiere den Verein unter den angegebenen Adressen.
© 2018 - Kölner Klub für Luftsport e.V.
Bonn / Hangelar - EDKB - Germany